Time;durP1;ratioP1;P1;durP2;ratioP2;P2;SDS_P1;SDS_P2;PMS_P1;PMS_P2;Temp;Humidity;BMP_temperature;BMP_pressure;BME280_temperature;BME280_humidity;BME280_pressure;Samples;Min_cycle;Max_cycle;Signal;HPM_P1;HPM_P2
2021/01/22 00:01:56;;;;;;;0.60;0.60;;;;;;;0.31;100.00;100795.77;1729097;81;21446;-49
2021/01/22 00:04:24;;;;;;;0.10;0.10;;;;;;;0.29;100.00;100789.76;1696390;84;21188;-50
2021/01/22 00:06:52;;;;;;;0.13;0.13;;;;;;;0.28;100.00;100790.80;1729059;81;21126;-50
2021/01/22 00:09:20;;;;;;;1.17;1.15;;;;;;;0.29;100.00;100791.11;1696420;84;21234;-49
2021/01/22 00:11:47;;;;;;;0.72;0.72;;;;;;;0.29;100.00;100784.38;1727037;82;21111;-49
2021/01/22 00:14:15;;;;;;;0.15;0.15;;;;;;;0.28;100.00;100782.73;1696446;84;21166;-49
2021/01/22 00:16:42;;;;;;;0.20;0.20;;;;;;;0.28;100.00;100782.73;1729920;81;21562;-49
2021/01/22 00:19:10;;;;;;;0.25;0.25;;;;;;;0.29;100.00;100780.35;1791052;79;21102;-50
2021/01/22 00:21:38;;;;;;;2.65;1.22;;;;;;;0.32;100.00;100783.14;1778645;80;20967;-50
2021/01/22 00:24:06;;;;;;;0.93;0.93;;;;;;;0.33;100.00;100778.92;1778553;80;21599;-49
2021/01/22 00:26:34;;;;;;;0.60;0.60;;;;;;;0.32;100.00;100777.77;1765519;80;21138;-50
2021/01/22 00:29:02;;;;;;;0.17;0.17;;;;;;;0.32;100.00;100778.63;1789190;80;21133;-50
2021/01/22 00:31:29;;;;;;;0.13;0.13;;;;;;;0.33;100.00;100778.92;1789067;80;21122;-49
2021/01/22 00:33:56;;;;;;;1.12;0.95;;;;;;;0.36;100.00;100772.31;1789089;80;21446;-49
2021/01/22 00:36:24;;;;;;;0.37;0.37;;;;;;;0.36;100.00;100773.66;1791214;78;21114;-50
2021/01/22 00:38:51;;;;;;;0.37;0.37;;;;;;;0.35;100.00;100767.45;1759903;81;21640;-50
2021/01/22 00:41:19;;;;;;;0.47;0.30;;;;;;;0.37;100.00;100764.55;1759599;81;21157;-49
2021/01/22 00:43:47;;;;;;;3.15;0.78;;;;;;;0.39;100.00;100767.34;1779248;80;21095;-49
2021/01/22 00:46:14;;;;;;;0.95;0.68;;;;;;;0.39;100.00;100765.17;1791017;80;21120;-49
2021/01/22 00:48:42;;;;;;;0.95;0.95;;;;;;;0.39;100.00;100759.27;1791244;80;21123;-50
2021/01/22 00:51:09;;;;;;;1.00;0.62;;;;;;;0.40;100.00;100756.91;1791015;80;21138;-49
2021/01/22 00:53:39;;;;;;;0.78;0.55;;;;;;;0.42;100.00;100758.89;1788670;80;21490;-49
2021/01/22 00:56:06;;;;;;;0.80;0.70;;;;;;;0.41;100.00;100747.80;1790890;80;21163;-49
2021/01/22 00:58:34;;;;;;;4.70;0.88;;;;;;;0.42;100.00;100741.41;1788802;80;21099;-49
2021/01/22 01:01:08;;;;;;;10.30;1.45;;;;;;;0.42;100.00;100746.78;1762217;80;21118;-49
2021/01/22 01:03:35;;;;;;;0.80;0.25;;;;;;;0.45;100.00;100736.66;1790994;80;21138;-49
2021/01/22 01:06:03;;;;;;;0.40;0.40;;;;;;;0.43;100.00;100734.98;1790357;80;21120;-50
2021/01/22 01:08:33;;;;;;;0.30;0.30;;;;;;;0.42;100.00;100732.00;1759854;81;21445;-49
2021/01/22 01:11:12;;;;;;;0.10;0.10;;;;;;;0.46;100.00;100723.52;1816733;76;29059;-48
2021/01/22 01:13:47;;;;;;;0.55;0.55;;;;;;;0.41;100.00;100723.61;1762408;80;21146;-48
2021/01/22 01:16:26;;;;;;;2.08;1.92;;;;;;;0.41;100.00;100727.64;1785440;80;21185;-48
2021/01/22 01:18:54;;;;;;;0.20;0.20;;;;;;;0.40;100.00;100726.00;1786073;80;21162;-48
2021/01/22 01:21:21;;;;;;;0.30;0.30;;;;;;;0.41;100.00;100723.61;1786122;80;21117;-49
2021/01/22 01:23:49;;;;;;;2.17;1.95;;;;;;;0.45;100.00;100724.56;1786171;80;21078;-49
2021/01/22 01:26:17;;;;;;;0.20;0.20;;;;;;;0.43;100.00;100721.55;1767382;80;21138;-49
2021/01/22 01:28:44;;;;;;;0.10;0.10;;;;;;;0.41;100.00;100719.58;1753361;81;21138;-49
2021/01/22 01:31:12;;;;;;;1.15;0.93;;;;;;;0.42;100.00;100713.67;1753404;81;21126;-49
2021/01/22 01:33:40;;;;;;;0.40;0.40;;;;;;;0.45;100.00;100713.81;1753538;81;21121;-49
2021/01/22 01:36:09;;;;;;;0.33;0.33;;;;;;;0.45;100.00;100713.28;1767862;80;21138;-49
2021/01/22 01:38:36;;;;;;;1.55;0.42;;;;;;;0.43;100.00;100713.48;1786185;80;21086;-49
2021/01/22 01:41:04;;;;;;;0.10;0.10;;;;;;;0.45;100.00;100706.56;1786227;80;21425;-49
2021/01/22 01:43:32;;;;;;;0.72;0.72;;;;;;;0.47;100.00;100711.22;1786151;80;21145;-49
2021/01/22 01:45:59;;;;;;;4.55;1.47;;;;;;;0.48;100.00;100706.66;1756005;80;21655;-49
2021/01/22 01:48:29;;;;;;;0.37;0.30;;;;;;;0.47;100.00;100719.78;1753315;81;21425;-49
2021/01/22 01:50:56;;;;;;;0.00;0.00;;;;;;;0.46;100.00;100711.41;1753016;81;21098;-48
2021/01/22 01:53:24;;;;;;;0.45;0.08;;;;;;;0.47;100.00;100711.71;1753427;81;21197;-49
2021/01/22 01:55:52;;;;;;;1.05;1.05;;;;;;;0.46;100.00;100706.04;1779265;80;21142;-49
2021/01/22 01:58:21;;;;;;;1.45;0.55;;;;;;;0.46;100.00;100708.73;1770931;80;21111;-49
2021/01/22 02:00:50;;;;;;;0.60;0.33;;;;;;;0.44;100.00;100703.55;1755604;80;21575;-50
2021/01/22 02:03:19;;;;;;;1.25;0.30;;;;;;;0.45;100.00;100706.56;1753399;81;21138;-49
2021/01/22 02:05:49;;;;;;;1.05;0.98;;;;;;;0.46;100.00;100711.41;1703941;81;21193;-49
2021/01/22 02:08:18;;;;;;;5.67;0.53;;;;;;;0.45;100.00;100708.43;1754904;81;21146;-49
2021/01/22 02:10:46;;;;;;;0.42;0.42;;;;;;;0.43;100.00;100699.22;1767811;80;21533;-49
2021/01/22 02:13:24;;;;;;;0.20;0.20;;;;;;;0.42;100.00;100697.05;1755040;81;21118;-48
2021/01/22 02:15:52;;;;;;;2.08;0.82;;;;;;;0.42;100.00;100694.36;1754986;80;21557;-49
2021/01/22 02:18:19;;;;;;;0.20;0.20;;;;;;;0.42;100.00;100698.88;1726036;81;21170;-49
2021/01/22 02:21:23;;;;;;;1.75;0.53;;;;;;;0.41;100.00;100688.66;1754016;80;21589;-49
2021/01/22 02:24:00;;;;;;;0.20;0.20;;;;;;;0.43;100.00;100689.28;1785703;80;21094;-49
2021/01/22 02:26:34;;;;;;;2.42;1.27;;;;;;;0.42;100.00;100702.42;1785643;80;21100;-49
2021/01/22 02:29:08;;;;;;;0.30;0.30;;;;;;;0.42;100.00;100693.51;1779445;80;21603;-49
2021/01/22 02:31:42;;;;;;;0.10;0.10;;;;;;;0.43;100.00;100685.77;1721999;81;21586;-49
2021/01/22 02:34:12;;;;;;;0.10;0.10;;;;;;;0.43;100.00;100685.25;1752672;81;21560;-50
2021/01/22 02:36:41;;;;;;;2.55;0.65;;;;;;;0.43;100.00;100686.59;1752775;81;21538;-49
2021/01/22 02:39:11;;;;;;;1.50;0.40;;;;;;;0.41;100.00;100687.31;1776905;80;21145;-49
2021/01/22 02:41:40;;;;;;;2.50;0.85;;;;;;;0.41;100.00;100694.03;1785523;80;21106;-49
2021/01/22 02:44:08;;;;;;;0.93;0.93;;;;;;;0.41;100.00;100692.69;1755798;80;21587;-49
2021/01/22 02:46:36;;;;;;;0.35;0.35;;;;;;;0.40;100.00;100689.70;1785388;80;21138;-49
2021/01/22 02:49:03;;;;;;;0.20;0.20;;;;;;;0.37;100.00;100691.95;1764387;80;21129;-48
2021/01/22 02:51:31;;;;;;;0.53;0.42;;;;;;;0.36;100.00;100689.80;1752721;81;21122;-49
2021/01/22 02:53:58;;;;;;;0.10;0.10;;;;;;;0.37;100.00;100695.50;1752868;81;21110;-50
2021/01/22 02:56:38;;;;;;;0.35;0.35;;;;;;;0.35;100.00;100686.80;1755730;80;21158;-48
2021/01/22 02:59:34;;;;;;;0.88;0.57;;;;;;;0.33;100.00;100690.21;1785022;80;21491;-49
2021/01/22 03:02:25;;;;;;;1.35;1.17;;;;;;;0.32;100.00;100693.95;1785341;80;21168;-49
2021/01/22 03:04:53;;;;;;;0.30;0.30;;;;;;;0.32;100.00;100689.91;1785195;80;21849;-48
2021/01/22 03:07:28;;;;;;;1.10;0.25;;;;;;;0.30;100.00;100693.84;1770170;80;21131;-49
2021/01/22 03:09:58;;;;;;;1.27;0.57;;;;;;;0.28;100.00;100692.69;1753920;81;21158;-49
2021/01/22 03:12:29;;;;;;;0.10;0.10;;;;;;;0.30;100.00;100688.47;1758669;81;21142;-49
2021/01/22 03:14:58;;;;;;;0.25;0.25;;;;;;;0.29;100.00;100688.14;1709409;80;21435;-49
2021/01/22 03:17:27;;;;;;;0.20;0.20;;;;;;;0.26;100.00;100685.34;1760339;81;21134;-49
2021/01/22 03:19:56;;;;;;;3.00;0.30;;;;;;;0.25;100.00;100691.77;1760078;80;21169;-48
2021/01/22 03:22:24;;;;;;;0.20;0.20;;;;;;;0.25;100.00;100682.85;1760210;81;21138;-49
2021/01/22 03:24:51;;;;;;;4.37;0.68;;;;;;;0.24;100.00;100682.03;1760163;80;21469;-49
2021/01/22 03:27:19;;;;;;;5.53;1.22;;;;;;;0.23;100.00;100685.77;1788651;80;21560;-49
2021/01/22 03:29:46;;;;;;;0.20;0.20;;;;;;;0.20;100.00;100688.87;1791624;80;21201;-49
2021/01/22 03:32:13;;;;;;;1.05;0.90;;;;;;;0.21;100.00;100687.83;1791774;80;21117;-49
2021/01/22 03:34:40;;;;;;;0.20;0.20;;;;;;;0.20;100.00;100687.00;1789285;80;21154;-48
2021/01/22 03:37:08;;;;;;;0.00;0.00;;;;;;;0.19;100.00;100683.16;1791544;79;21187;-48
2021/01/22 03:39:36;;;;;;;0.17;0.17;;;;;;;0.18;100.00;100681.00;1789152;80;21154;-48
2021/01/22 03:42:04;;;;;;;0.53;0.53;;;;;;;0.19;100.00;100681.82;1791561;80;21545;-48
2021/01/22 03:44:32;;;;;;;0.85;0.85;;;;;;;0.19;100.00;100672.41;1791547;80;21071;-50
2021/01/22 03:46:59;;;;;;;0.25;0.25;;;;;;;0.17;100.00;100679.85;1791539;79;21097;-49
2021/01/22 03:49:28;;;;;;;0.00;0.00;;;;;;;0.15;100.00;100680.59;1763744;80;21138;-49
2021/01/22 03:51:56;;;;;;;0.30;0.30;;;;;;;0.15;100.00;100682.77;1725304;83;21155;-49
2021/01/22 03:54:23;;;;;;;4.37;1.52;;;;;;;0.15;100.00;100682.77;1710287;82;21165;-49
2021/01/22 03:56:50;;;;;;;0.85;0.85;;;;;;;0.15;100.00;100688.14;1710184;83;21133;-49
2021/01/22 03:59:18;;;;;;;0.85;0.85;;;;;;;0.15;100.00;100690.00;1712509;82;21225;-49
2021/01/22 04:01:45;;;;;;;0.75;0.75;;;;;;;0.14;100.00;100692.36;1710083;82;21168;-49
2021/01/22 04:04:13;;;;;;;0.65;0.25;;;;;;;0.14;100.00;100681.61;1710158;82;21198;-49
2021/01/22 04:06:42;;;;;;;0.10;0.10;;;;;;;0.13;100.00;100689.38;1711426;82;21504;-49
2021/01/22 04:09:10;;;;;;;0.05;0.05;;;;;;;0.12;100.00;100682.33;1741503;82;21090;-49
2021/01/22 04:11:37;;;;;;;1.05;1.05;;;;;;;0.11;100.00;100679.34;1733647;82;21334;-48
2021/01/22 04:14:06;;;;;;;0.62;0.62;;;;;;;0.10;100.00;100676.33;1790934;80;21161;-49
2021/01/22 04:16:33;;;;;;;2.92;0.60;;;;;;;0.09;100.00;100679.53;1789613;80;21121;-48
2021/01/22 04:19:00;;;;;;;0.53;0.53;;;;;;;0.08;100.00;100677.89;1703106;83;21446;-49
2021/01/22 04:21:28;;;;;;;0.10;0.10;;;;;;;0.07;100.00;100676.74;1719149;83;21443;-48
2021/01/22 04:23:55;;;;;;;0.10;0.10;;;;;;;0.07;100.00;100664.65;1750884;81;21149;-49
2021/01/22 04:26:23;;;;;;;3.33;0.42;;;;;;;0.06;100.00;100673.75;1750691;81;21156;-48
2021/01/22 04:28:51;;;;;;;0.00;0.00;;;;;;;0.04;100.00;100663.72;1721630;81;21121;-49
2021/01/22 04:31:18;;;;;;;0.37;0.37;;;;;;;0.02;100.00;100667.13;1750686;81;21135;-48
2021/01/22 04:33:45;;;;;;;1.77;1.07;;;;;;;0.01;100.00;100668.17;1750952;81;21140;-49
2021/01/22 04:36:13;;;;;;;0.55;0.55;;;;;;;0.01;100.00;100673.55;1750815;81;21218;-48
2021/01/22 04:38:40;;;;;;;0.25;0.25;;;;;;;0.01;100.00;100665.48;1750766;81;21176;-48
2021/01/22 04:41:07;;;;;;;0.15;0.15;;;;;;;0.00;100.00;100679.44;1750761;81;21160;-50
2021/01/22 04:43:40;;;;;;;0.37;0.37;;;;;;;-0.01;100.00;100676.42;1750825;81;21152;-49
2021/01/22 04:46:05;;;;;;;0.68;0.68;;;;;;;-0.01;100.00;100678.59;1750660;81;21468;-49
2021/01/22 04:48:33;;;;;;;0.30;0.30;;;;;;;-0.02;100.00;100681.50;1721577;81;21172;-49
2021/01/22 04:51:00;;;;;;;0.10;0.10;;;;;;;-0.03;100.00;100679.30;1721192;81;21162;-49
2021/01/22 04:53:27;;;;;;;0.10;0.10;;;;;;;-0.03;100.00;100678.48;1724278;83;21123;-49
2021/01/22 04:55:55;;;;;;;0.78;0.78;;;;;;;-0.05;100.00;100677.85;1732521;81;21153;-50
2021/01/22 04:58:22;;;;;;;0.00;0.00;;;;;;;-0.05;100.00;100676.51;1732604;82;21177;-49
2021/01/22 05:00:50;;;;;;;1.70;0.40;;;;;;;-0.07;100.00;100680.77;1701106;82;21165;-49
2021/01/22 05:03:18;;;;;;;0.42;0.42;;;;;;;-0.10;100.00;100672.27;1732479;82;21206;-49
2021/01/22 05:05:45;;;;;;;0.10;0.10;;;;;;;-0.12;100.00;100675.17;1732605;82;21403;-49
2021/01/22 05:08:13;;;;;;;0.57;0.57;;;;;;;-0.10;100.00;100683.02;1730476;82;21146;-49
2021/01/22 05:10:40;;;;;;;0.23;0.20;;;;;;;-0.13;100.00;100674.84;1738113;81;21409;-49
2021/01/22 05:13:09;;;;;;;0.10;0.10;;;;;;;-0.15;100.00;100672.88;1756492;81;21138;-49
2021/01/22 05:15:37;;;;;;;0.03;0.03;;;;;;;-0.16;100.00;100676.60;1752878;81;21131;-49
2021/01/22 05:18:05;;;;;;;0.47;0.47;;;;;;;-0.16;100.00;100673.91;1731513;81;21130;-49
2021/01/22 05:20:39;;;;;;;1.82;0.95;;;;;;;-0.15;100.00;100674.22;1736183;81;21541;-49
2021/01/22 05:23:08;;;;;;;0.10;0.10;;;;;;;-0.17;100.00;100676.30;1724748;83;21536;-49
2021/01/22 05:26:08;;;;;;;4.47;0.78;;;;;;;-0.17;100.00;100672.77;1750896;80;21166;-49
2021/01/22 05:28:39;;;;;;;0.35;0.35;;;;;;;-0.16;100.00;100675.78;1756375;81;21210;-50
2021/01/22 05:31:11;;;;;;;0.08;0.08;;;;;;;-0.17;100.00;100670.93;1756320;80;21161;-49
2021/01/22 05:33:44;;;;;;;0.30;0.30;;;;;;;-0.17;100.00;100673.61;1756609;81;21803;-49
2021/01/22 05:36:30;;;;;;;0.20;0.20;;;;;;;-0.19;100.00;100668.95;1754769;80;21162;-49
2021/01/22 05:41:41;;;;;;;0.00;0.00;;;;;;;-0.12;100.00;100663.61;1847541;76;29500;-48
2021/01/22 05:44:11;;;;;;;1.35;0.80;;;;;;;-0.17;100.00;100665.56;1784732;78;21125;-48
2021/01/22 05:46:38;;;;;;;0.10;0.10;;;;;;;-0.16;100.00;100668.55;1777789;80;21142;-47
2021/01/22 05:49:12;;;;;;;0.20;0.20;;;;;;;-0.16;100.00;100669.88;1785931;78;21127;-48
2021/01/22 05:51:42;;;;;;;0.30;0.30;;;;;;;-0.14;100.00;100662.98;1785662;80;21150;-47
2021/01/22 05:54:09;;;;;;;0.85;0.70;;;;;;;-0.15;100.00;100667.50;1755666;78;21118;-48
2021/01/22 05:56:37;;;;;;;0.10;0.10;;;;;;;-0.14;100.00;100661.11;1755534;80;21102;-48
2021/01/22 05:59:13;;;;;;;1.00;0.95;;;;;;;-0.13;100.00;100653.36;1785698;78;21170;-48
2021/01/22 06:01:41;;;;;;;0.10;0.10;;;;;;;-0.12;100.00;100656.38;1785722;80;21174;-48
2021/01/22 06:04:09;;;;;;;0.50;0.50;;;;;;;-0.10;100.00;100658.34;1785677;78;21107;-47
2021/01/22 06:06:36;;;;;;;0.65;0.20;;;;;;;-0.10;100.00;100654.80;1785700;80;21111;-48
2021/01/22 06:09:07;;;;;;;0.33;0.33;;;;;;;-0.09;100.00;100648.42;1785720;78;21142;-48
2021/01/22 06:11:36;;;;;;;0.10;0.10;;;;;;;-0.08;100.00;100649.53;1785721;80;21114;-47
2021/01/22 06:14:05;;;;;;;0.47;0.40;;;;;;;-0.06;100.00;100650.16;1785638;78;21572;-48
2021/01/22 06:16:35;;;;;;;0.10;0.10;;;;;;;-0.04;100.00;100652.14;1785898;80;21114;-47
2021/01/22 06:19:06;;;;;;;0.33;0.33;;;;;;;-0.04;100.00;100653.48;1756356;78;21159;-48
2021/01/22 06:21:39;;;;;;;0.40;0.40;;;;;;;-0.04;100.00;100653.48;1785864;80;21110;-48
2021/01/22 06:24:07;;;;;;;1.62;0.50;;;;;;;-0.01;100.00;100651.72;1786058;78;21561;-48
2021/01/22 06:26:36;;;;;;;1.22;0.55;;;;;;;0.04;100.00;100647.60;1785949;80;21889;-47
2021/01/22 06:29:06;;;;;;;2.50;0.33;;;;;;;0.06;100.00;100645.55;1785906;78;21129;-47
2021/01/22 06:31:34;;;;;;;1.20;0.88;;;;;;;0.07;100.00;100643.16;1786148;80;21149;-48
2021/01/22 06:34:02;;;;;;;0.20;0.20;;;;;;;0.09;100.00;100647.81;1755694;78;21090;-48
2021/01/22 06:36:29;;;;;;;1.52;0.25;;;;;;;0.10;100.00;100642.73;1755801;80;21134;-48
2021/01/22 06:38:56;;;;;;;0.30;0.30;;;;;;;0.12;100.00;100652.24;1786018;78;21429;-47
2021/01/22 06:41:27;;;;;;;0.10;0.10;;;;;;;0.14;100.00;100654.73;1793063;79;21117;-48
2021/01/22 06:43:57;;;;;;;0.93;0.53;;;;;;;0.16;100.00;100651.33;1794913;79;21153;-48
2021/01/22 06:46:30;;;;;;;0.30;0.30;;;;;;;0.17;100.00;100643.56;1794875;79;21110;-48
2021/01/22 06:49:02;;;;;;;0.20;0.20;;;;;;;0.19;100.00;100642.33;1794741;78;21136;-48
2021/01/22 06:51:33;;;;;;;0.33;0.33;;;;;;;0.21;100.00;100648.85;1792188;79;21169;-48
2021/01/22 06:54:16;;;;;;;0.65;0.65;;;;;;;0.22;100.00;100647.80;1770772;79;21165;-48
2021/01/22 06:56:52;;;;;;;0.45;0.45;;;;;;;0.24;100.00;100649.77;1775477;79;21114;-48
2021/01/22 06:59:35;;;;;;;1.20;0.78;;;;;;;0.28;100.00;100648.34;1794207;78;21702;-48
2021/01/22 07:02:01;;;;;;;0.82;0.82;;;;;;;0.30;100.00;100650.83;1794240;79;21160;-47
2021/01/22 07:04:40;;;;;;;0.17;0.17;;;;;;;0.32;100.00;100652.28;1794041;78;21201;-48
2021/01/22 07:07:08;;;;;;;1.25;1.25;;;;;;;0.34;100.00;100651.53;1794051;79;21149;-48
2021/01/22 07:09:48;;;;;;;0.10;0.10;;;;;;;0.37;100.00;100643.08;1779572;79;21437;-48
2021/01/22 07:12:16;;;;;;;0.30;0.30;;;;;;;0.40;100.00;100648.55;1763018;81;21442;-48
2021/01/22 07:14:48;;;;;;;0.47;0.47;;;;;;;0.43;100.00;100647.61;1762636;80;21170;-48
2021/01/22 07:17:21;;;;;;;0.23;0.23;;;;;;;0.45;100.00;100645.24;1762525;81;21491;-47
2021/01/22 07:20:00;;;;;;;0.95;0.25;;;;;;;0.48;100.00;100635.41;1779093;78;21691;-48
2021/01/22 07:22:29;;;;;;;0.30;0.30;;;;;;;0.52;100.00;100635.28;1793998;79;21111;-48
2021/01/22 07:24:58;;;;;;;0.10;0.10;;;;;;;0.58;100.00;100633.94;1794022;78;21168;-48
2021/01/22 07:27:46;;;;;;;0.85;0.85;;;;;;;0.63;100.00;100640.86;1793644;79;21122;-48
2021/01/22 07:30:17;;;;;;;1.30;0.47;;;;;;;0.67;100.00;100634.56;1793914;78;21164;-48
2021/01/22 07:32:48;;;;;;;0.85;0.85;;;;;;;0.70;100.00;100646.23;1794054;79;21109;-48
2021/01/22 07:35:22;;;;;;;0.42;0.30;;;;;;;0.74;100.00;100639.41;1793936;79;21106;-48
2021/01/22 07:37:49;;;;;;;0.25;0.25;;;;;;;0.79;100.00;100636.92;1794211;79;21588;-48
2021/01/22 07:40:17;;;;;;;0.30;0.30;;;;;;;0.83;100.00;100632.75;1792101;79;21166;-49
2021/01/22 07:42:46;;;;;;;0.47;0.47;;;;;;;0.88;100.00;100635.34;1773111;80;21125;-48
2021/01/22 07:45:15;;;;;;;1.32;0.37;;;;;;;0.91;100.00;100642.98;1774371;80;21118;-48
2021/01/22 07:47:47;;;;;;;0.35;0.35;;;;;;;0.94;100.00;100643.89;1765485;80;21162;-48
2021/01/22 07:50:19;;;;;;;0.60;0.60;;;;;;;0.96;100.00;100643.17;1785219;79;21142;-48
2021/01/22 07:52:48;;;;;;;0.37;0.37;;;;;;;0.98;100.00;100642.45;1784641;80;21151;-48
2021/01/22 07:55:20;;;;;;;0.00;0.00;;;;;;;1.00;100.00;100641.72;1784950;79;21217;-51
2021/01/22 07:58:02;;;;;;;0.20;0.20;;;;;;;1.05;100.00;100645.95;1785212;80;21111;-51
2021/01/22 08:00:37;;;;;;;0.28;0.28;;;;;;;1.07;100.00;100642.00;1781039;80;21584;-52
2021/01/22 08:03:05;;;;;;;1.65;0.95;;;;;;;1.10;100.00;100648.00;1785058;80;21126;-52
2021/01/22 08:05:35;;;;;;;0.33;0.28;;;;;;;1.14;100.00;100644.69;1784960;80;21168;-51
2021/01/22 08:08:20;;;;;;;0.33;0.33;;;;;;;1.19;100.00;100653.47;1784893;80;21130;-51
2021/01/22 08:10:48;;;;;;;1.27;1.22;;;;;;;1.21;100.00;100650.87;1784457;80;21098;-51
2021/01/22 08:13:16;;;;;;;0.00;0.00;;;;;;;1.22;100.00;100657.08;1785028;80;21537;-48
2021/01/22 08:15:44;;;;;;;0.23;0.23;;;;;;;1.24;100.00;100663.91;1784361;80;21134;-48
2021/01/22 08:18:13;;;;;;;1.15;0.85;;;;;;;1.28;100.00;100662.41;1777224;80;21117;-48
2021/01/22 08:20:51;;;;;;;0.17;0.17;;;;;;;1.35;100.00;100653.50;1747810;80;21540;-48
2021/01/22 08:23:21;;;;;;;0.10;0.10;;;;;;;1.38;100.00;100653.06;1785166;80;21434;-48
2021/01/22 08:25:48;;;;;;;0.05;0.05;;;;;;;1.41;100.00;100653.48;1784857;80;21070;-49
2021/01/22 08:28:16;;;;;;;0.17;0.17;;;;;;;1.45;100.00;100653.87;1784571;80;20995;-49
2021/01/22 08:30:43;;;;;;;4.37;0.85;;;;;;;1.47;100.00;100650.45;1747942;80;21555;-51
2021/01/22 08:33:11;;;;;;;0.95;0.95;;;;;;;1.49;100.00;100652.41;1747010;81;21461;-51
2021/01/22 08:35:39;;;;;;;0.40;0.40;;;;;;;1.53;100.00;100652.27;1746530;80;21134;-52
2021/01/22 08:38:06;;;;;;;2.83;1.67;;;;;;;1.56;100.00;100649.17;1784140;78;21123;-52
2021/01/22 08:40:41;;;;;;;0.98;0.98;;;;;;;1.58;100.00;100644.36;1785101;80;21813;-52
2021/01/22 08:43:09;;;;;;;0.50;0.50;;;;;;;1.56;100.00;100635.70;1785116;80;21165;-51
2021/01/22 08:45:37;;;;;;;0.95;0.95;;;;;;;1.57;100.00;100635.99;1783795;79;21533;-52
2021/01/22 08:48:05;;;;;;;0.08;0.08;;;;;;;1.57;99.96;100637.34;1779834;80;21107;-51
2021/01/22 08:50:33;;;;;;;0.10;0.10;;;;;;;1.60;99.98;100642.28;1780690;80;21224;-52
2021/01/22 08:53:13;;;;;;;0.45;0.45;;;;;;;1.66;99.75;100637.40;1782623;80;21110;-52
2021/01/22 08:55:41;;;;;;;0.95;0.95;;;;;;;1.69;99.46;100636.95;1775586;78;21149;-52
2021/01/22 08:58:10;;;;;;;0.45;0.45;;;;;;;1.70;99.21;100632.39;1784852;80;21138;-51
2021/01/22 09:00:40;;;;;;;0.42;0.42;;;;;;;1.74;98.98;100632.80;1784889;78;21537;-52
2021/01/22 09:03:23;;;;;;;0.20;0.20;;;;;;;1.76;98.74;100624.80;1766438;80;21114;-52
2021/01/22 09:05:52;;;;;;;1.80;0.57;;;;;;;1.80;98.64;100623.84;1762838;81;21158;-51
2021/01/22 09:08:21;;;;;;;0.10;0.10;;;;;;;1.83;98.32;100618.00;1773264;80;21148;-52
2021/01/22 09:10:49;;;;;;;1.35;0.55;;;;;;;1.83;97.94;100619.34;1782072;80;21473;-51
2021/01/22 09:13:23;;;;;;;1.45;1.17;;;;;;;1.84;97.70;100614.28;1784408;80;21149;-51
2021/01/22 09:16:04;;;;;;;0.30;0.30;;;;;;;1.85;97.58;100615.92;1784595;80;21161;-52
2021/01/22 09:18:32;;;;;;;0.42;0.42;;;;;;;1.86;97.24;100608.16;1784951;80;21114;-49
2021/01/22 09:21:06;;;;;;;0.28;0.28;;;;;;;1.83;96.95;100604.53;1784977;80;21138;-50
2021/01/22 09:23:36;;;;;;;0.70;0.70;;;;;;;1.85;96.91;100601.10;1785024;80;21098;-50
2021/01/22 09:26:04;;;;;;;0.10;0.10;;;;;;;1.93;96.79;100612.98;1738699;80;21146;-51
2021/01/22 09:28:31;;;;;;;0.60;0.60;;;;;;;2.04;96.94;100607.40;1784672;80;21070;-51
2021/01/22 09:30:59;;;;;;;1.82;0.62;;;;;;;2.15;96.67;100603.48;1785134;80;21126;-51
2021/01/22 09:33:26;;;;;;;0.57;0.57;;;;;;;2.28;96.42;100599.84;1785037;80;21180;-51
2021/01/22 09:35:55;;;;;;;0.23;0.23;;;;;;;2.40;95.82;100595.91;1784786;78;21122;-51
2021/01/22 09:38:24;;;;;;;0.60;0.60;;;;;;;2.46;94.99;100600.92;1784934;80;21157;-51
2021/01/22 09:40:52;;;;;;;0.40;0.40;;;;;;;2.49;94.89;100596.42;1759593;79;22757;-52
2021/01/22 09:43:20;;;;;;;3.70;0.60;;;;;;;2.54;94.72;100590.66;1764803;79;21145;-51
2021/01/22 09:45:50;;;;;;;0.35;0.35;;;;;;;2.58;94.20;100593.22;1791531;78;22032;-51
2021/01/22 09:48:18;;;;;;;0.28;0.28;;;;;;;2.61;93.81;100585.73;1793792;79;21137;-51
2021/01/22 09:50:46;;;;;;;0.95;0.95;;;;;;;2.63;93.57;100591.20;1793662;79;21102;-52
2021/01/22 09:53:14;;;;;;;0.25;0.25;;;;;;;2.66;93.34;100585.36;1793943;79;21114;-51
2021/01/22 09:55:43;;;;;;;0.25;0.25;;;;;;;2.70;93.10;100584.40;1792638;79;21102;-52
2021/01/22 09:58:10;;;;;;;0.40;0.40;;;;;;;2.74;92.99;100586.92;1791266;79;21164;-52
2021/01/22 10:00:37;;;;;;;0.13;0.13;;;;;;;2.79;92.74;100576.28;1782635;78;21119;-52
2021/01/22 10:03:05;;;;;;;0.57;0.57;;;;;;;2.84;92.40;100572.91;1779991;79;21441;-51
2021/01/22 10:05:32;;;;;;;0.53;0.53;;;;;;;2.84;92.05;100572.38;1793900;78;21098;-52
2021/01/22 10:08:01;;;;;;;2.27;0.90;;;;;;;2.86;91.93;100567.59;1794259;79;21078;-51
2021/01/22 10:10:29;;;;;;;0.68;0.68;;;;;;;2.89;91.91;100561.73;1793825;78;21596;-51
2021/01/22 10:12:58;;;;;;;0.28;0.28;;;;;;;2.95;91.73;100560.02;1793883;79;21133;-51
2021/01/22 10:15:25;;;;;;;0.50;0.50;;;;;;;3.00;91.42;100566.92;1793918;79;21613;-52
2021/01/22 10:17:53;;;;;;;1.45;1.35;;;;;;;3.03;90.92;100557.55;1794019;79;21150;-51
2021/01/22 10:20:20;;;;;;;1.55;1.32;;;;;;;3.04;90.79;100558.64;1792065;79;21134;-52
2021/01/22 10:22:48;;;;;;;0.42;0.42;;;;;;;3.07;90.55;100553.34;1794094;79;21122;-51
2021/01/22 10:25:15;;;;;;;0.42;0.25;;;;;;;3.10;90.29;100556.94;1793821;79;21006;-52
2021/01/22 10:27:43;;;;;;;0.42;0.42;;;;;;;3.15;89.98;100544.92;1794154;79;21129;-52
2021/01/22 10:30:11;;;;;;;0.82;0.82;;;;;;;3.22;89.23;100548.36;1792412;78;21106;-51
2021/01/22 10:32:39;;;;;;;0.45;0.40;;;;;;;3.23;88.89;100544.59;1794089;79;21105;-52
2021/01/22 10:35:08;;;;;;;0.85;0.47;;;;;;;3.23;88.58;100547.30;1794069;78;21141;-51
2021/01/22 10:37:35;;;;;;;0.82;0.82;;;;;;;3.20;88.38;100538.31;1762995;81;21157;-51
2021/01/22 10:40:04;;;;;;;1.15;0.80;;;;;;;3.17;88.25;100527.97;1790670;78;21177;-51
2021/01/22 10:42:32;;;;;;;0.35;0.35;;;;;;;3.19;88.10;100526.69;1787583;79;21117;-51
2021/01/22 10:45:01;;;;;;;0.10;0.10;;;;;;;3.22;88.03;100524.06;1781473;78;21477;-51
2021/01/22 10:47:29;;;;;;;0.10;0.10;;;;;;;3.25;87.76;100513.33;1784192;80;21150;-51
2021/01/22 10:49:57;;;;;;;1.20;0.68;;;;;;;3.22;87.39;100522.71;1784178;78;21113;-52
2021/01/22 10:52:25;;;;;;;0.60;0.23;;;;;;;3.20;87.30;100519.41;1784635;80;21109;-51
2021/01/22 10:54:52;;;;;;;0.23;0.23;;;;;;;3.16;87.05;100516.86;1784812;80;21442;-51
2021/01/22 10:57:20;;;;;;;3.45;0.98;;;;;;;3.11;86.89;100515.37;1785151;80;21558;-51
2021/01/22 10:59:47;;;;;;;0.30;0.30;;;;;;;3.09;86.89;100512.92;1778303;80;21145;-51
2021/01/22 11:02:14;;;;;;;0.20;0.20;;;;;;;3.09;86.63;100516.12;1784461;80;21559;-51
2021/01/22 11:04:42;;;;;;;1.35;1.30;;;;;;;3.07;86.69;100512.84;1791602;78;21138;-51
2021/01/22 11:07:11;;;;;;;3.25;0.78;;;;;;;3.07;86.74;100514.20;1777731;80;21717;-51
2021/01/22 11:09:39;;;;;;;0.10;0.10;;;;;;;3.10;86.78;100512.38;1776738;80;21448;-51
2021/01/22 11:12:07;;;;;;;0.10;0.10;;;;;;;3.14;86.77;100510.85;1783753;80;21127;-51
2021/01/22 11:14:34;;;;;;;0.72;0.68;;;;;;;3.19;86.76;100501.54;1784433;78;21207;-51
2021/01/22 11:17:02;;;;;;;2.37;0.82;;;;;;;3.24;86.45;100503.05;1784214;80;21166;-51
2021/01/22 11:19:31;;;;;;;0.25;0.17;;;;;;;3.26;86.36;100498.22;1785173;80;21185;-51
2021/01/22 11:21:58;;;;;;;0.08;0.08;;;;;;;3.28;86.21;100489.90;1785511;80;21552;-51
2021/01/22 11:24:25;;;;;;;1.22;1.05;;;;;;;3.29;86.12;100490.19;1779060;80;21250;-51
2021/01/22 11:26:54;;;;;;;2.15;1.90;;;;;;;3.36;85.97;100493.11;1776458;79;21140;-51
2021/01/22 11:29:24;;;;;;;0.98;0.98;;;;;;;3.40;85.76;100485.36;1776567;80;21428;-51
2021/01/22 11:31:51;;;;;;;0.80;0.80;;;;;;;3.43;85.47;100487.59;1776832;80;21145;-51
2021/01/22 11:34:18;;;;;;;3.20;0.42;;;;;;;3.49;85.42;100484.48;1777036;80;21225;-51
2021/01/22 11:36:47;;;;;;;0.80;0.80;;;;;;;3.52;85.21;100488.09;1776852;80;21445;-51
2021/01/22 11:39:14;;;;;;;0.45;0.45;;;;;;;3.49;85.09;100485.83;1776891;80;21121;-51
2021/01/22 11:41:42;;;;;;;0.25;0.25;;;;;;;3.44;85.23;100484.67;1776310;80;21631;-52